Clayton, Ohio
Current Conditions -  °F | °C
As of 9:56 AM on Saturday 22 Nov 2014 (Local Time) from KDAY Reporting Station
Overcast Overcast  
Wind Chill: 30°   Ceiling: 5500
Heat Index: 39°   Visibility: 10mi
Dew Point: 32°   Wind: 18mph
Humidity: 76%   Direction: 190°S
Pressure: 30.22"   Gusts: NA
Location:  39.86°N, 84.36°W
Report Text: KDAY 221456Z 19016KT 10SM FEW042 BKN055 OVC080 04/00 A3022 RMK AO2 RAB10E27 SLP245 P0000 T00390000 56010
Loading
Personal Weather Stations






























Interactive Weather Map New forecast layout! Learn more

10-Day Weather Forecast

Advertisements
Track Severe Weather on mobile